ICAO code: LHPR | IATA code: QGY | SITA: QGYAPXH | AFTN: LHPRZPZX

Időjárási adatok

METAR LHPR 242245Z AUTO 14010KT 110V170 6000 OVC005 M00/M00 Q1029=
TAF LHPR 242000Z NIL=
Párásság
2020-11-24 22:40:00 UTC
Hőmérséklet
-0.2 °C
 
Harmatpont
-0.3 °C
 
Rel. páratartalom
99%
 
QNH
1029.3 hPa
 
Szélsebesség
6.2 m/s
Max
8.2 m/s
Szélirány
140°
 
Csapadék (1 óra)
0.0 mm
 
Látótávolság
4851 m
 
RVR
>1500 m RWY30
 
1. felhőréteg mennyisége
8 octa
 
1. felhőréteg alapja
160 m